Ooltewah, TN (37363)

1:08 PM EDT on August 29, 2015 (GMT -0400)
Royal Harbour | | Change Station
CLOSE
Current Station
Personal Weather Station
Location: Ooltewah, TN
Elevation: 705 ft
Nearby Weather Stations

Elev 705 ft 35.14 °N, 85.08 °W | Updated 3 minutes ago

Mostly Cloudy
Mostly Cloudy
88.7 °F
Feels Like 96 °F
N
1.7
Wind Variable Wind from SSE

Today
High -- | Low -- °F
--% Chance of Precip.
Yesterday
High -- | Low -- °F
Precip. -- in
7:10 AM 8:11 PM
Full, 100% visible
Pressure 30.16 in
Visibility 10.0 miles
Clouds Scattered Clouds 3000 ft
Scattered Clouds 4100 ft
Mostly Cloudy 6500 ft
Mostly Cloudy 15000 ft
Heat Index 96 °F
Dew Point 72 °F
Humidity 59%
Rainfall 0.00 in
Snow Depth Not available.
UV 5 out of 12
Pollen 8.70 out of 12
Air Quality Not available.
Flu Activity Not available.
METAR KCHA 291653Z 15009G16KT 120V200 10SM SCT030 SCT041 BKN065 BKN150 29/20 A3018 RMK AO2 LTG DSNT W SLP212 T02890200
Pressure 30.16 in
Visibility 10.0 miles
Clouds Scattered Clouds 3000 ft
Scattered Clouds 4100 ft
Mostly Cloudy 6500 ft
Mostly Cloudy 15000 ft
Heat Index 96 °F
Dew Point 72 °F
Humidity 59%
Rainfall 0.00 in
Snow Depth Not available.
UV 5 out of 12
Pollen 8.70 out of 12
Air Quality Not available.
Flu Activity Not available.
METAR KCHA 291653Z 15009G16KT 120V200 10SM SCT030 SCT041 BKN065 BKN150 29/20 A3018 RMK AO2 LTG DSNT W SLP212 T02890200

10-Day Weather Forecast

×

Almanac

Astronomy

Aug. 29, 2015 Rise Set
Actual Time
Civil Twilight
Nautical Twilight
Astronomical Twilight
Moon
Length of Visible Light
Length of Day
Tomorrow will be .
, % of the Moon is Illuminated

Today's Extremes

State Highs State Lows

Community

WunderPhotos

Upload Photos

1,850,724 photos uploaded!

WunderBlogs® & News

Nearby

Air Quality

  Air Quality AQ Index Pollutant
Not available.

Snow Depth

Station Depth Elevation

Earthquake Activity

City Distance Mag. Time & Date
Minimum magnitude displayed is 2.5.

Coastal Water Temperatures

Place Temperature

Stations

Nearby Weather Stations

Station Location Temp. Windchill Dew Point Humidity Wind Precip. Elev Updated Type